Terminal Aerodrome Forecast
Issued by NWS Tampa Bay Area, FL

Home | Current Version | Previous Version | Text Only | Print | Product List | Glossary On
Versions: 1 2 3 4 5 6 7 8 9 10 11 12 13 14 15
000
FTUS42 KTBW 261700
TAFSRQ
TAF
KSRQ 261729Z 2618/2718 31015G25KT P6SM SCT040
     FM270300 31009KT P6SM FEW025
     FM271400 30011G20KT P6SM FEW030 SCT250=

USA.gov is the U.S. government's official web portal to all federal, state and local government web resources and services.